PRIVATE WETTERSTATION BILLIGHEIM-ALLFELD                       ZURCK
Wetterdaten: Sonntag, 09.04.2017
Datum Zeit Temp. A. Temp. A. min Temp. A. max Feuchte A. Luftdruck Regen Wind Richtung Richtung Sonnenschein ET Solar Taupunkt Windchill Windben Empfang
09.04.2017 00:00 7,1 C 7,1 C 7,4 C 85 % 1023,0 hPa 0,0 l/m 0,0 km/h (0 Bft) N 0 0 min 0,000 mm 0 W/m 4,8 C 7,1 C 0,0 km/h (0 Bft) 100 %
09.04.2017 00:10 6,8 C 6,8 C 7,1 C 86 % 1023,1 hPa 0,0 l/m 0,0 km/h (0 Bft) N 0 0 min 0,000 mm 0 W/m 4,6 C 6,8 C 0,0 km/h (0 Bft) 80 %
09.04.2017 00:20 6,4 C 6,4 C 6,8 C 87 % 1023,1 hPa 0,0 l/m 0,0 km/h (0 Bft) N 0 0 min 0,000 mm 0 W/m 4,4 C 6,4 C 0,0 km/h (0 Bft) 100 %
09.04.2017 00:30 6,2 C 6,2 C 6,4 C 88 % 1023,1 hPa 0,0 l/m 0,0 km/h (0 Bft) N-NO 22 0 min 0,000 mm 0 W/m 4,4 C 6,2 C 3,2 km/h (1 Bft) 100 %
09.04.2017 00:40 6,1 C 6,1 C 6,2 C 88 % 1023,0 hPa 0,0 l/m 0,0 km/h (0 Bft) N 0 0 min 0,000 mm 0 W/m 4,3 C 6,1 C 0,0 km/h (0 Bft) 100 %
09.04.2017 00:50 5,9 C 5,9 C 6,1 C 89 % 1023,1 hPa 0,0 l/m 0,0 km/h (0 Bft) N 0 0 min 0,000 mm 0 W/m 4,2 C 5,9 C 0,0 km/h (0 Bft) 100 %
09.04.2017 01:00 5,9 C 5,8 C 5,9 C 89 % 1023,2 hPa 0,0 l/m 0,0 km/h (0 Bft) N 0 0 min 0,000 mm 0 W/m 4,2 C 5,9 C 0,0 km/h (0 Bft) 100 %
09.04.2017 01:10 5,7 C 5,7 C 5,8 C 89 % 1023,2 hPa 0,0 l/m 0,0 km/h (0 Bft) N 0 0 min 0,000 mm 0 W/m 4,0 C 5,7 C 0,0 km/h (0 Bft) 100 %
09.04.2017 01:20 5,4 C 5,4 C 5,7 C 89 % 1023,2 hPa 0,0 l/m 0,0 km/h (0 Bft) N 0 0 min 0,000 mm 0 W/m 3,7 C 5,4 C 0,0 km/h (0 Bft) 100 %
09.04.2017 01:30 5,3 C 5,3 C 5,4 C 89 % 1023,2 hPa 0,0 l/m 0,0 km/h (0 Bft) N 0 0 min 0,000 mm 0 W/m 3,6 C 5,3 C 0,0 km/h (0 Bft) 100 %
09.04.2017 01:40 5,1 C 5,1 C 5,3 C 89 % 1023,2 hPa 0,0 l/m 0,0 km/h (0 Bft) N 0 0 min 0,000 mm 0 W/m 3,4 C 5,1 C 0,0 km/h (0 Bft) 100 %
09.04.2017 01:50 5,1 C 5,1 C 5,1 C 90 % 1023,2 hPa 0,0 l/m 0,0 km/h (0 Bft) N 0 0 min 0,000 mm 0 W/m 3,6 C 5,1 C 0,0 km/h (0 Bft) 100 %
09.04.2017 02:00 5,1 C 5,1 C 5,2 C 90 % 1023,1 hPa 0,0 l/m 0,0 km/h (0 Bft) N 0 0 min 0,000 mm 0 W/m 3,6 C 5,1 C 0,0 km/h (0 Bft) 100 %
09.04.2017 02:10 5,1 C 5,1 C 5,2 C 90 % 1023,1 hPa 0,0 l/m 0,0 km/h (0 Bft) N 0 0 min 0,000 mm 0 W/m 3,6 C 5,1 C 0,0 km/h (0 Bft) 100 %
09.04.2017 02:20 5,0 C 5,0 C 5,1 C 90 % 1023,1 hPa 0,0 l/m 0,0 km/h (0 Bft) N 0 0 min 0,000 mm 0 W/m 3,5 C 5,0 C 0,0 km/h (0 Bft) 100 %
09.04.2017 02:30 4,7 C 4,7 C 5,0 C 90 % 1023,2 hPa 0,0 l/m 0,0 km/h (0 Bft) N-NO 22 0 min 0,000 mm 0 W/m 3,2 C 4,7 C 1,6 km/h (1 Bft) 100 %
09.04.2017 02:40 4,2 C 4,2 C 4,7 C 90 % 1023,1 hPa 0,0 l/m 0,0 km/h (0 Bft) N 0 0 min 0,000 mm 0 W/m 2,7 C 4,2 C 0,0 km/h (0 Bft) 100 %
09.04.2017 02:50 4,2 C 4,1 C 4,2 C 90 % 1023,0 hPa 0,0 l/m 0,0 km/h (0 Bft) N 0 0 min 0,000 mm 0 W/m 2,7 C 4,2 C 0,0 km/h (0 Bft) 100 %
09.04.2017 03:00 4,1 C 4,1 C 4,2 C 90 % 1023,0 hPa 0,0 l/m 0,0 km/h (0 Bft) N 0 0 min 0,000 mm 0 W/m 2,6 C 4,1 C 0,0 km/h (0 Bft) 91 %
09.04.2017 03:10 3,7 C 3,7 C 4,1 C 90 % 1023,0 hPa 0,0 l/m 0,0 km/h (0 Bft) N-NO 22 0 min 0,000 mm 0 W/m 2,2 C 3,7 C 1,6 km/h (1 Bft) 100 %
09.04.2017 03:20 3,6 C 3,6 C 3,7 C 90 % 1023,0 hPa 0,0 l/m 0,0 km/h (0 Bft) N 0 0 min 0,000 mm 0 W/m 2,1 C 3,6 C 0,0 km/h (0 Bft) 100 %
09.04.2017 03:30 3,4 C 3,4 C 3,6 C 90 % 1023,0 hPa 0,0 l/m 0,0 km/h (0 Bft) N 0 0 min 0,000 mm 0 W/m 1,9 C 3,4 C 0,0 km/h (0 Bft) 100 %
09.04.2017 03:40 3,2 C 3,2 C 3,4 C 91 % 1023,0 hPa 0,0 l/m 0,0 km/h (0 Bft) N 0 0 min 0,000 mm 0 W/m 1,9 C 3,2 C 0,0 km/h (0 Bft) 100 %
09.04.2017 03:50 3,2 C 3,2 C 3,2 C 90 % 1022,9 hPa 0,0 l/m 0,0 km/h (0 Bft) N 0 0 min 0,000 mm 0 W/m 1,7 C 3,2 C 0,0 km/h (0 Bft) 100 %
09.04.2017 04:00 3,1 C 3,1 C 3,2 C 90 % 1022,9 hPa 0,0 l/m 0,0 km/h (0 Bft) N 0 0 min 0,000 mm 0 W/m 1,6 C 3,1 C 0,0 km/h (0 Bft) 100 %
09.04.2017 04:10 2,9 C 2,9 C 3,1 C 91 % 1022,8 hPa 0,0 l/m 0,0 km/h (0 Bft) N-NO 22 0 min 0,000 mm 0 W/m 1,6 C 2,9 C 1,6 km/h (1 Bft) 100 %
09.04.2017 04:20 2,8 C 2,8 C 2,9 C 90 % 1022,9 hPa 0,0 l/m 0,0 km/h (0 Bft) N 0 0 min 0,000 mm 0 W/m 1,3 C 2,8 C 0,0 km/h (0 Bft) 100 %
09.04.2017 04:30 2,7 C 2,7 C 2,8 C 90 % 1022,9 hPa 0,0 l/m 0,0 km/h (0 Bft) N 0 0 min 0,000 mm 0 W/m 1,2 C 2,7 C 0,0 km/h (0 Bft) 100 %
09.04.2017 04:40 2,7 C 2,7 C 2,7 C 91 % 1022,9 hPa 0,0 l/m 0,0 km/h (0 Bft) N 0 0 min 0,000 mm 0 W/m 1,4 C 2,7 C 0,0 km/h (0 Bft) 91 %
09.04.2017 04:50 2,6 C 2,6 C 2,7 C 91 % 1022,9 hPa 0,0 l/m 0,0 km/h (0 Bft) N-NO 22 0 min 0,000 mm 0 W/m 1,3 C 2,6 C 3,2 km/h (1 Bft) 100 %
09.04.2017 05:00 2,3 C 2,3 C 2,6 C 91 % 1022,8 hPa 0,0 l/m 0,0 km/h (0 Bft) N-NO 22 0 min 0,000 mm 0 W/m 1,0 C 2,3 C 3,2 km/h (1 Bft) 100 %
09.04.2017 05:10 2,1 C 2,1 C 2,3 C 91 % 1022,9 hPa 0,0 l/m 0,0 km/h (0 Bft) N 0 0 min 0,000 mm 0 W/m 0,8 C 2,1 C 0,0 km/h (0 Bft) 100 %
09.04.2017 05:20 1,9 C 1,9 C 2,1 C 91 % 1023,0 hPa 0,0 l/m 0,0 km/h (0 Bft) N 0 0 min 0,000 mm 0 W/m 0,6 C 1,9 C 0,0 km/h (0 Bft) 100 %
09.04.2017 05:30 1,8 C 1,8 C 1,9 C 91 % 1023,0 hPa 0,0 l/m 0,0 km/h (0 Bft) N 0 0 min 0,000 mm 0 W/m 0,5 C 1,8 C 0,0 km/h (0 Bft) 100 %
09.04.2017 05:40 1,9 C 1,8 C 1,9 C 91 % 1023,0 hPa 0,0 l/m 0,0 km/h (0 Bft) N 0 0 min 0,000 mm 0 W/m 0,6 C 1,9 C 0,0 km/h (0 Bft) 100 %
09.04.2017 05:50 1,9 C 1,9 C 1,9 C 91 % 1023,1 hPa 0,0 l/m 0,0 km/h (0 Bft) N 0 0 min 0,000 mm 0 W/m 0,6 C 1,9 C 0,0 km/h (0 Bft) 100 %
09.04.2017 06:00 1,9 C 1,9 C 1,9 C 91 % 1023,1 hPa 0,0 l/m 0,0 km/h (0 Bft) N 0 0 min 0,000 mm 0 W/m 0,6 C 1,9 C 0,0 km/h (0 Bft) 100 %
09.04.2017 06:10 1,9 C 1,9 C 1,9 C 91 % 1023,1 hPa 0,0 l/m 0,0 km/h (0 Bft) N 0 0 min 0,000 mm 0 W/m 0,6 C 1,9 C 0,0 km/h (0 Bft) 91 %
09.04.2017 06:20 1,6 C 1,6 C 1,8 C 91 % 1023,1 hPa 0,0 l/m 0,0 km/h (0 Bft) N 0 0 min 0,000 mm 0 W/m 0,3 C 1,6 C 0,0 km/h (0 Bft) 100 %
09.04.2017 06:30 1,4 C 1,4 C 1,7 C 91 % 1023,3 hPa 0,0 l/m 0,0 km/h (0 Bft) N 0 0 min 0,000 mm 0 W/m 0,1 C 1,4 C 0,0 km/h (0 Bft) 100 %
09.04.2017 06:40 1,4 C 1,4 C 1,4 C 91 % 1023,3 hPa 0,0 l/m 0,0 km/h (0 Bft) N 0 0 min 0,000 mm 0 W/m 0,1 C 1,4 C 0,0 km/h (0 Bft) 100 %
09.04.2017 06:50 1,4 C 1,4 C 1,4 C 91 % 1023,4 hPa 0,0 l/m 0,0 km/h (0 Bft) N 0 0 min 0,000 mm 5 W/m 0,1 C 1,4 C 0,0 km/h (0 Bft) 100 %
09.04.2017 07:00 1,2 C 1,2 C 1,4 C 91 % 1023,3 hPa 0,0 l/m 0,0 km/h (0 Bft) N 0 0 min 0,000 mm 11 W/m -0,1 C 1,2 C 0,0 km/h (0 Bft) 100 %
09.04.2017 07:10 1,2 C 1,2 C 1,2 C 91 % 1023,3 hPa 0,0 l/m 0,0 km/h (0 Bft) N 0 0 min 0,000 mm 16 W/m -0,1 C 1,2 C 0,0 km/h (0 Bft) 100 %
09.04.2017 07:20 1,3 C 1,2 C 1,3 C 91 % 1023,5 hPa 0,0 l/m 0,0 km/h (0 Bft) N 0 0 min 0,000 mm 21 W/m -0,0 C 1,3 C 0,0 km/h (0 Bft) 100 %
09.04.2017 07:30 1,3 C 1,2 C 1,3 C 91 % 1023,5 hPa 0,0 l/m 0,0 km/h (0 Bft) N 0 0 min 0,000 mm 26 W/m -0,0 C 1,3 C 0,0 km/h (0 Bft) 100 %
09.04.2017 07:40 1,4 C 1,3 C 1,4 C 91 % 1023,7 hPa 0,0 l/m 0,0 km/h (0 Bft) N 0 0 min 0,000 mm 30 W/m 0,1 C 1,4 C 0,0 km/h (0 Bft) 100 %
09.04.2017 07:50 1,4 C 1,4 C 1,4 C 91 % 1023,7 hPa 0,0 l/m 0,0 km/h (0 Bft) N 0 0 min 0,000 mm 37 W/m 0,1 C 1,4 C 0,0 km/h (0 Bft) 100 %
09.04.2017 08:00 1,6 C 1,4 C 1,6 C 91 % 1023,7 hPa 0,0 l/m 0,0 km/h (0 Bft) N 0 0 min 0,000 mm 39 W/m 0,3 C 1,6 C 0,0 km/h (0 Bft) 99 %
09.04.2017 08:10 1,9 C 1,6 C 1,9 C 91 % 1023,8 hPa 0,0 l/m 0,0 km/h (0 Bft) N 0 0 min 0,000 mm 46 W/m 0,6 C 1,9 C 0,0 km/h (0 Bft) 98 %
09.04.2017 08:20 2,3 C 1,9 C 2,3 C 91 % 1023,8 hPa 0,0 l/m 0,0 km/h (0 Bft) N 0 0 min 0,000 mm 69 W/m 1,0 C 2,3 C 0,0 km/h (0 Bft) 97 %
09.04.2017 08:30 2,8 C 2,3 C 2,8 C 91 % 1023,9 hPa 0,0 l/m 0,0 km/h (0 Bft) N 0 10 min 0,000 mm 216 W/m 1,5 C 2,8 C 0,0 km/h (0 Bft) 97 %
09.04.2017 08:40 3,5 C 2,8 C 3,5 C 91 % 1024,0 hPa 0,0 l/m 0,0 km/h (0 Bft) N 0 10 min 0,000 mm 258 W/m 2,2 C 3,5 C 0,0 km/h (0 Bft) 98 %
09.04.2017 08:50 4,8 C 3,5 C 4,8 C 91 % 1024,0 hPa 0,0 l/m 0,0 km/h (0 Bft) N 0 10 min 0,000 mm 290 W/m 3,5 C 4,8 C 0,0 km/h (0 Bft) 97 %
09.04.2017 09:00 6,0 C 4,9 C 6,0 C 91 % 1024,0 hPa 0,0 l/m 0,0 km/h (0 Bft) N 0 10 min 0,076 mm 318 W/m 4,6 C 6,0 C 0,0 km/h (0 Bft) 97 %
09.04.2017 09:10 7,3 C 6,0 C 7,3 C 91 % 1024,1 hPa 0,0 l/m 0,0 km/h (0 Bft) N 0 10 min 0,000 mm 348 W/m 5,9 C 7,3 C 0,0 km/h (0 Bft) 98 %
09.04.2017 09:20 8,0 C 7,3 C 8,0 C 91 % 1024,1 hPa 0,0 l/m 0,0 km/h (0 Bft) N 0 10 min 0,000 mm 385 W/m 6,6 C 8,0 C 0,0 km/h (0 Bft) 97 %
09.04.2017 09:30 9,1 C 8,0 C 9,1 C 90 % 1024,2 hPa 0,0 l/m 0,0 km/h (0 Bft) N 0 10 min 0,000 mm 422 W/m 7,5 C 9,1 C 0,0 km/h (0 Bft) 98 %
09.04.2017 09:40 10,2 C 9,1 C 10,2 C 86 % 1024,3 hPa 0,0 l/m 0,0 km/h (0 Bft) N 0 10 min 0,000 mm 454 W/m 8,0 C 10,2 C 0,0 km/h (0 Bft) 97 %
09.04.2017 09:50 11,2 C 10,2 C 11,2 C 86 % 1024,2 hPa 0,0 l/m 0,0 km/h (0 Bft) N 0 10 min 0,000 mm 485 W/m 8,9 C 11,2 C 0,0 km/h (0 Bft) 98 %
09.04.2017 10:00 12,7 C 11,2 C 12,7 C 79 % 1024,3 hPa 0,0 l/m 0,0 km/h (0 Bft) N 0 10 min 0,178 mm 513 W/m 9,2 C 12,7 C 0,0 km/h (0 Bft) 96 %
09.04.2017 10:10 13,6 C 12,7 C 13,6 C 78 % 1024,2 hPa 0,0 l/m 0,0 km/h (0 Bft) N 0 10 min 0,000 mm 540 W/m 9,8 C 13,6 C 0,0 km/h (0 Bft) 97 %
09.04.2017 10:20 14,3 C 13,6 C 14,3 C 74 % 1024,3 hPa 0,0 l/m 0,0 km/h (0 Bft) N 360 10 min 0,000 mm 564 W/m 9,7 C 14,3 C 1,6 km/h (1 Bft) 98 %
09.04.2017 10:30 14,7 C 14,3 C 14,7 C 71 % 1024,2 hPa 0,0 l/m 0,0 km/h (0 Bft) N 0 10 min 0,000 mm 596 W/m 9,5 C 14,7 C 0,0 km/h (0 Bft) 98 %
09.04.2017 10:40 15,2 C 14,7 C 15,2 C 72 % 1024,3 hPa 0,0 l/m 0,0 km/h (0 Bft) W-SW 247 10 min 0,000 mm 621 W/m 10,2 C 15,2 C 1,6 km/h (1 Bft) 98 %
09.04.2017 10:50 15,8 C 15,2 C 15,8 C 72 % 1024,3 hPa 0,0 l/m 0,0 km/h (0 Bft) SW 225 10 min 0,000 mm 642 W/m 10,8 C 15,8 C 1,6 km/h (1 Bft) 97 %
09.04.2017 11:00 16,3 C 15,8 C 16,3 C 67 % 1024,3 hPa 0,0 l/m 0,0 km/h (0 Bft) S-SW 202 10 min 0,305 mm 661 W/m 10,2 C 16,3 C 1,6 km/h (1 Bft) 98 %
09.04.2017 11:10 16,1 C 16,1 C 16,5 C 64 % 1024,2 hPa 0,0 l/m 1,6 km/h (1 Bft) S 180 10 min 0,000 mm 680 W/m 9,3 C 16,1 C 11,3 km/h (2 Bft) 97 %
09.04.2017 11:20 16,2 C 16,0 C 16,2 C 63 % 1024,3 hPa 0,0 l/m 0,0 km/h (0 Bft) N 0 10 min 0,000 mm 698 W/m 9,1 C 16,2 C 0,0 km/h (0 Bft) 97 %
09.04.2017 11:30 16,9 C 16,2 C 16,9 C 61 % 1024,2 hPa 0,0 l/m 0,0 km/h (0 Bft) S 180 10 min 0,000 mm 717 W/m 9,3 C 16,9 C 1,6 km/h (1 Bft) 98 %
09.04.2017 11:40 17,3 C 16,9 C 17,3 C 57 % 1024,3 hPa 0,0 l/m 0,0 km/h (0 Bft) N 0 10 min 0,000 mm 733 W/m 8,7 C 17,3 C 0,0 km/h (0 Bft) 96 %
09.04.2017 11:50 17,6 C 17,3 C 17,6 C 58 % 1024,2 hPa 0,0 l/m 0,0 km/h (0 Bft) NW 315 10 min 0,000 mm 751 W/m 9,2 C 17,6 C 4,8 km/h (1 Bft) 98 %
09.04.2017 12:00 17,8 C 17,6 C 17,8 C 60 % 1024,0 hPa 0,0 l/m 0,0 km/h (0 Bft) N-NW 337 10 min 0,381 mm 761 W/m 9,9 C 17,8 C 6,4 km/h (2 Bft) 97 %
09.04.2017 12:10 17,7 C 17,7 C 17,9 C 58 % 1024,0 hPa 0,0 l/m 1,6 km/h (1 Bft) O-SO 112 10 min 0,000 mm 777 W/m 9,3 C 17,7 C 14,5 km/h (3 Bft) 98 %
09.04.2017 12:20 18,0 C 17,7 C 18,0 C 56 % 1023,8 hPa 0,0 l/m 0,0 km/h (0 Bft) O-NO 67 10 min 0,000 mm 793 W/m 9,1 C 18,0 C 4,8 km/h (1 Bft) 97 %
09.04.2017 12:30 18,4 C 18,0 C 18,4 C 55 % 1023,9 hPa 0,0 l/m 0,0 km/h (0 Bft) O-NO 67 10 min 0,000 mm 789 W/m 9,2 C 18,4 C 3,2 km/h (1 Bft) 98 %
09.04.2017 12:40 18,7 C 18,4 C 18,7 C 51 % 1023,8 hPa 0,0 l/m 1,6 km/h (1 Bft) N 360 10 min 0,000 mm 802 W/m 8,4 C 18,7 C 8,0 km/h (2 Bft) 99 %
09.04.2017 12:50 18,8 C 18,7 C 18,9 C 52 % 1023,7 hPa 0,0 l/m 1,6 km/h (1 Bft) O-NO 67 10 min 0,000 mm 810 W/m 8,7 C 18,8 C 6,4 km/h (2 Bft) 98 %
09.04.2017 13:00 18,6 C 18,6 C 18,9 C 49 % 1023,8 hPa 0,0 l/m 3,2 km/h (1 Bft) O-SO 112 10 min 0,432 mm 814 W/m 7,7 C 18,6 C 6,4 km/h (2 Bft) 99 %
09.04.2017 13:10 18,5 C 18,3 C 18,5 C 54 % 1023,5 hPa 0,0 l/m 0,0 km/h (0 Bft) SO 135 10 min 0,000 mm 819 W/m 9,0 C 18,5 C 1,6 km/h (1 Bft) 98 %
09.04.2017 13:20 19,4 C 18,3 C 19,4 C 47 % 1023,5 hPa 0,0 l/m 0,0 km/h (0 Bft) NW 308 10 min 0,000 mm 823 W/m 7,8 C 19,4 C 1,6 km/h (1 Bft) 99 %
09.04.2017 13:30 19,7 C 19,4 C 19,7 C 50 % 1023,5 hPa 0,0 l/m 0,0 km/h (0 Bft) NW 322 10 min 0,000 mm 814 W/m 9,0 C 19,7 C 0,0 km/h (0 Bft) 100 %
09.04.2017 13:40 19,9 C 19,7 C 19,9 C 49 % 1023,3 hPa 0,0 l/m 3,9 km/h (1 Bft) W 264 10 min 0,000 mm 807 W/m 8,9 C 19,9 C 14,5 km/h (3 Bft) 100 %
09.04.2017 13:50 20,4 C 19,9 C 20,4 C 48 % 1023,3 hPa 0,0 l/m 2,3 km/h (1 Bft) N-NW 327 10 min 0,000 mm 814 W/m 9,0 C 20,4 C 8,0 km/h (2 Bft) 100 %
09.04.2017 14:00 20,7 C 20,4 C 20,7 C 42 % 1023,1 hPa 0,0 l/m 0,6 km/h (0 Bft) N-NW 340 10 min 0,482 mm 802 W/m 7,3 C 20,7 C 6,4 km/h (2 Bft) 100 %
09.04.2017 14:10 20,8 C 20,7 C 20,8 C 44 % 1023,0 hPa 0,0 l/m 2,8 km/h (1 Bft) N-NW 333 10 min 0,000 mm 798 W/m 8,1 C 20,8 C 11,3 km/h (2 Bft) 100 %
09.04.2017 14:20 21,2 C 20,8 C 21,2 C 45 % 1023,0 hPa 0,0 l/m 1,3 km/h (1 Bft) NW 325 10 min 0,000 mm 793 W/m 8,8 C 21,2 C 8,0 km/h (2 Bft) 100 %
09.04.2017 14:30 20,9 C 20,9 C 21,2 C 45 % 1022,9 hPa 0,0 l/m 1,7 km/h (1 Bft) NW 311 10 min 0,000 mm 786 W/m 8,5 C 20,9 C 11,3 km/h (2 Bft) 100 %
09.04.2017 14:40 21,3 C 20,9 C 21,3 C 42 % 1022,8 hPa 0,0 l/m 0,5 km/h (0 Bft) W 275 10 min 0,000 mm 766 W/m 7,9 C 21,3 C 6,4 km/h (2 Bft) 100 %
09.04.2017 14:50 21,2 C 21,2 C 21,4 C 40 % 1022,7 hPa 0,0 l/m 1,0 km/h (0 Bft) W-SW 249 10 min 0,000 mm 765 W/m 7,1 C 21,2 C 9,7 km/h (2 Bft) 100 %
09.04.2017 15:00 21,3 C 21,2 C 21,3 C 41 % 1022,7 hPa 0,0 l/m 1,0 km/h (0 Bft) N-NW 336 10 min 0,457 mm 749 W/m 7,5 C 21,3 C 6,4 km/h (2 Bft) 100 %
09.04.2017 15:10 21,7 C 21,3 C 21,7 C 42 % 1022,5 hPa 0,0 l/m 1,4 km/h (1 Bft) NW 314 10 min 0,000 mm 675 W/m 8,2 C 21,7 C 11,3 km/h (2 Bft) 100 %
09.04.2017 15:20 22,0 C 21,7 C 22,0 C 41 % 1022,4 hPa 0,0 l/m 0,6 km/h (0 Bft) NW 306 0 min 0,000 mm 70 W/m 8,1 C 22,0 C 8,0 km/h (2 Bft) 100 %
09.04.2017 15:30 22,3 C 22,0 C 22,3 C 43 % 1022,3 hPa 0,0 l/m 1,8 km/h (1 Bft) NW 309 0 min 0,000 mm 67 W/m 9,1 C 22,3 C 14,5 km/h (3 Bft) 100 %
09.04.2017 15:40 21,9 C 21,9 C 22,3 C 43 % 1022,2 hPa 0,0 l/m 0,9 km/h (0 Bft) S-SW 210 0 min 0,000 mm 65 W/m 8,7 C 21,9 C 11,3 km/h (2 Bft) 100 %
09.04.2017 15:50 21,8 C 21,7 C 21,9 C 45 % 1022,2 hPa 0,0 l/m 2,0 km/h (1 Bft) NW 312 0 min 0,000 mm 63 W/m 9,3 C 21,8 C 14,5 km/h (3 Bft) 100 %
09.04.2017 16:00 22,1 C 21,8 C 22,1 C 39 % 1022,0 hPa 0,0 l/m 1,4 km/h (1 Bft) N 350 0 min 0,127 mm 62 W/m 7,5 C 22,1 C 11,3 km/h (2 Bft) 100 %
09.04.2017 16:10 21,9 C 21,9 C 22,1 C 41 % 1022,0 hPa 0,0 l/m 0,8 km/h (0 Bft) W 267 0 min 0,000 mm 60 W/m 8,0 C 21,9 C 9,7 km/h (2 Bft) 100 %
09.04.2017 16:20 21,8 C 21,8 C 21,9 C 44 % 1021,8 hPa 0,0 l/m 2,0 km/h (1 Bft) W-SW 254 0 min 0,000 mm 58 W/m 9,0 C 21,8 C 11,3 km/h (2 Bft) 100 %
09.04.2017 16:30 21,7 C 21,7 C 21,8 C 45 % 1021,7 hPa 0,0 l/m 0,9 km/h (0 Bft) S-SW 210 0 min 0,000 mm 54 W/m 9,2 C 21,7 C 8,0 km/h (2 Bft) 100 %
09.04.2017 16:40 21,8 C 21,7 C 21,8 C 43 % 1021,5 hPa 0,0 l/m 2,5 km/h (1 Bft) W 274 0 min 0,000 mm 54 W/m 8,7 C 21,8 C 11,3 km/h (2 Bft) 100 %
09.04.2017 16:50 21,9 C 21,8 C 21,9 C 43 % 1021,5 hPa 0,0 l/m 1,4 km/h (1 Bft) W-SW 237 0 min 0,000 mm 53 W/m 8,7 C 21,9 C 9,7 km/h (2 Bft) 100 %
09.04.2017 17:00 21,9 C 21,8 C 21,9 C 43 % 1021,3 hPa 0,0 l/m 1,4 km/h (1 Bft) NW 320 0 min 0,051 mm 51 W/m 8,7 C 21,9 C 11,3 km/h (2 Bft) 100 %
09.04.2017 17:10 22,0 C 21,9 C 22,0 C 44 % 1021,2 hPa 0,0 l/m 0,4 km/h (0 Bft) W-NW 300 0 min 0,000 mm 49 W/m 9,2 C 22,0 C 6,4 km/h (2 Bft) 100 %
09.04.2017 17:20 21,8 C 21,8 C 22,0 C 46 % 1021,1 hPa 0,0 l/m 0,7 km/h (0 Bft) NW 306 0 min 0,000 mm 47 W/m 9,7 C 21,8 C 8,0 km/h (2 Bft) 100 %
09.04.2017 17:30 21,6 C 21,6 C 21,8 C 42 % 1021,1 hPa 0,0 l/m 0,0 km/h (0 Bft) NW 313 0 min 0,000 mm 46 W/m 8,1 C 21,6 C 1,6 km/h (1 Bft) 100 %
09.04.2017 17:40 21,5 C 21,5 C 21,6 C 43 % 1021,1 hPa 0,0 l/m 0,6 km/h (0 Bft) NW 317 0 min 0,000 mm 44 W/m 8,4 C 21,5 C 6,4 km/h (2 Bft) 100 %
09.04.2017 17:50 21,3 C 21,3 C 21,5 C 41 % 1021,0 hPa 0,0 l/m 0,0 km/h (0 Bft) NW 317 0 min 0,000 mm 42 W/m 7,5 C 21,3 C 0,0 km/h (0 Bft) 100 %
09.04.2017 18:00 21,1 C 21,1 C 21,3 C 42 % 1020,9 hPa 0,0 l/m 0,2 km/h (0 Bft) W-NW 284 0 min 0,051 mm 40 W/m 7,7 C 21,1 C 4,8 km/h (1 Bft) 100 %
09.04.2017 18:10 20,8 C 20,8 C 21,1 C 43 % 1020,8 hPa 0,0 l/m 0,0 km/h (0 Bft) W-NW 284 0 min 0,000 mm 37 W/m 7,8 C 20,8 C 1,6 km/h (1 Bft) 100 %
09.04.2017 18:20 20,6 C 20,6 C 20,8 C 46 % 1020,8 hPa 0,0 l/m 0,0 km/h (0 Bft) W-NW 284 0 min 0,000 mm 35 W/m 8,6 C 20,6 C 1,6 km/h (1 Bft) 100 %
09.04.2017 18:30 20,3 C 20,3 C 20,6 C 44 % 1020,7 hPa 0,0 l/m 0,4 km/h (0 Bft) S-SO 150 0 min 0,000 mm 35 W/m 7,6 C 20,3 C 6,4 km/h (2 Bft) 99 %
09.04.2017 18:40 20,2 C 20,2 C 20,3 C 45 % 1020,6 hPa 0,0 l/m 0,2 km/h (0 Bft) SW 216 0 min 0,000 mm 33 W/m 7,9 C 20,2 C 4,8 km/h (1 Bft) 100 %
09.04.2017 18:50 20,0 C 20,0 C 20,2 C 46 % 1020,5 hPa 0,0 l/m 0,0 km/h (0 Bft) SW 233 0 min 0,000 mm 30 W/m 8,0 C 20,0 C 1,6 km/h (1 Bft) 100 %
09.04.2017 19:00 19,7 C 19,7 C 20,0 C 49 % 1020,5 hPa 0,0 l/m 0,0 km/h (0 Bft) SW 227 0 min 0,025 mm 28 W/m 8,7 C 19,7 C 1,6 km/h (1 Bft) 100 %
09.04.2017 19:10 19,3 C 19,3 C 19,7 C 50 % 1020,5 hPa 0,0 l/m 0,0 km/h (0 Bft) SW 227 0 min 0,000 mm 25 W/m 8,6 C 19,3 C 1,6 km/h (1 Bft) 100 %
09.04.2017 19:20 18,9 C 18,9 C 19,3 C 51 % 1020,5 hPa 0,0 l/m 0,3 km/h (0 Bft) SW 217 0 min 0,000 mm 23 W/m 8,5 C 18,9 C 4,8 km/h (1 Bft) 100 %
09.04.2017 19:30 18,6 C 18,6 C 18,9 C 50 % 1020,6 hPa 0,0 l/m 0,0 km/h (0 Bft) S-SW 211 0 min 0,000 mm 19 W/m 8,0 C 18,6 C 1,6 km/h (1 Bft) 99 %
09.04.2017 19:40 18,4 C 18,4 C 18,6 C 48 % 1020,6 hPa 0,0 l/m 0,0 km/h (0 Bft) S-SW 211 0 min 0,000 mm 16 W/m 7,2 C 18,4 C 0,0 km/h (0 Bft) 100 %
09.04.2017 19:50 18,4 C 18,3 C 18,4 C 47 % 1020,5 hPa 0,0 l/m 0,0 km/h (0 Bft) S-SW 211 0 min 0,000 mm 11 W/m 6,9 C 18,4 C 1,6 km/h (1 Bft) 100 %
09.04.2017 20:00 18,3 C 18,3 C 18,4 C 48 % 1020,5 hPa 0,0 l/m 0,0 km/h (0 Bft) S-SW 211 0 min 0,026 mm 5 W/m 7,1 C 18,3 C 0,0 km/h (0 Bft) 100 %
09.04.2017 20:10 17,9 C 17,9 C 18,3 C 49 % 1020,5 hPa 0,0 l/m 0,0 km/h (0 Bft) S-SW 211 0 min 0,000 mm 0 W/m 7,0 C 17,9 C 0,0 km/h (0 Bft) 100 %
09.04.2017 20:20 17,3 C 17,3 C 17,9 C 49 % 1020,5 hPa 0,0 l/m 0,0 km/h (0 Bft) S-SW 211 0 min 0,000 mm 0 W/m 6,5 C 17,3 C 0,0 km/h (0 Bft) 100 %
09.04.2017 20:30 16,8 C 16,8 C 17,3 C 49 % 1020,5 hPa 0,0 l/m 0,0 km/h (0 Bft) S-SW 211 0 min 0,000 mm 0 W/m 6,0 C 16,8 C 0,0 km/h (0 Bft) 100 %
09.04.2017 20:40 16,4 C 16,4 C 16,8 C 50 % 1020,6 hPa 0,0 l/m 0,0 km/h (0 Bft) S-SW 211 0 min 0,000 mm 0 W/m 6,0 C 16,4 C 0,0 km/h (0 Bft) 100 %
09.04.2017 20:50 16,0 C 16,0 C 16,4 C 53 % 1020,6 hPa 0,0 l/m 0,0 km/h (0 Bft) S-SW 211 0 min 0,000 mm 0 W/m 6,4 C 16,0 C 0,0 km/h (0 Bft) 100 %
09.04.2017 21:00 15,6 C 15,6 C 16,0 C 53 % 1020,6 hPa 0,0 l/m 0,0 km/h (0 Bft) S-SW 211 0 min 0,000 mm 0 W/m 6,1 C 15,6 C 0,0 km/h (0 Bft) 100 %
09.04.2017 21:10 15,1 C 15,1 C 15,6 C 54 % 1020,8 hPa 0,0 l/m 0,0 km/h (0 Bft) N 0 0 min 0,000 mm 0 W/m 5,9 C 15,1 C 0,0 km/h (0 Bft) 98 %
09.04.2017 21:20 14,8 C 14,8 C 15,1 C 53 % 1020,8 hPa 0,0 l/m 0,0 km/h (0 Bft) N 0 0 min 0,000 mm 0 W/m 5,3 C 14,8 C 0,0 km/h (0 Bft) 98 %
09.04.2017 21:30 14,4 C 14,4 C 14,8 C 54 % 1020,8 hPa 0,0 l/m 0,0 km/h (0 Bft) N 0 0 min 0,000 mm 0 W/m 5,2 C 14,4 C 0,0 km/h (0 Bft) 96 %
09.04.2017 21:40 13,9 C 13,9 C 14,4 C 58 % 1020,9 hPa 0,0 l/m 0,0 km/h (0 Bft) N 0 0 min 0,000 mm 0 W/m 5,8 C 13,9 C 0,0 km/h (0 Bft) 87 %
09.04.2017 21:50 13,4 C 13,4 C 13,9 C 58 % 1020,8 hPa 0,0 l/m 0,0 km/h (0 Bft) N 0 0 min 0,000 mm 0 W/m 5,3 C 13,4 C 0,0 km/h (0 Bft) 98 %
09.04.2017 22:00 13,0 C 13,0 C 13,4 C 61 % 1020,8 hPa 0,0 l/m 0,0 km/h (0 Bft) N 0 0 min 0,025 mm 0 W/m 5,7 C 13,0 C 0,0 km/h (0 Bft) 98 %
09.04.2017 22:10 12,5 C 12,5 C 13,0 C 61 % 1020,6 hPa 0,0 l/m 0,0 km/h (0 Bft) SW 225 0 min 0,000 mm 0 W/m 5,2 C 12,5 C 4,8 km/h (1 Bft) 98 %
09.04.2017 22:20 12,2 C 12,2 C 12,5 C 62 % 1020,6 hPa 0,0 l/m 0,0 km/h (0 Bft) N 0 0 min 0,000 mm 0 W/m 5,1 C 12,2 C 0,0 km/h (0 Bft) 97 %
09.04.2017 22:30 11,9 C 11,9 C 12,2 C 65 % 1020,6 hPa 0,0 l/m 0,0 km/h (0 Bft) N 0 0 min 0,000 mm 0 W/m 5,5 C 11,9 C 0,0 km/h (0 Bft) 98 %
09.04.2017 22:40 11,5 C 11,5 C 11,9 C 66 % 1020,6 hPa 0,0 l/m 0,0 km/h (0 Bft) N 0 0 min 0,000 mm 0 W/m 5,4 C 11,5 C 0,0 km/h (0 Bft) 97 %
09.04.2017 22:50 11,1 C 11,1 C 11,5 C 67 % 1020,6 hPa 0,0 l/m 0,0 km/h (0 Bft) N 0 0 min 0,000 mm 0 W/m 5,2 C 11,1 C 0,0 km/h (0 Bft) 96 %
09.04.2017 23:00 10,9 C 10,9 C 11,1 C 69 % 1020,6 hPa 0,0 l/m 0,0 km/h (0 Bft) N 0 0 min 0,025 mm 0 W/m 5,4 C 10,9 C 0,0 km/h (0 Bft) 98 %
09.04.2017 23:10 10,6 C 10,6 C 10,9 C 70 % 1020,6 hPa 0,0 l/m 0,0 km/h (0 Bft) N 0 0 min 0,000 mm 0 W/m 5,4 C 10,6 C 0,0 km/h (0 Bft) 97 %
09.04.2017 23:20 10,3 C 10,3 C 10,6 C 71 % 1020,5 hPa 0,0 l/m 0,0 km/h (0 Bft) N 0 0 min 0,000 mm 0 W/m 5,3 C 10,3 C 0,0 km/h (0 Bft) 98 %
09.04.2017 23:30 10,1 C 10,1 C 10,3 C 71 % 1020,5 hPa 0,0 l/m 0,0 km/h (0 Bft) N 0 0 min 0,000 mm 0 W/m 5,1 C 10,1 C 0,0 km/h (0 Bft) 98 %
09.04.2017 23:40 9,9 C 9,9 C 10,1 C 72 % 1020,6 hPa 0,0 l/m 0,0 km/h (0 Bft) N 0 0 min 0,000 mm 0 W/m 5,1 C 9,9 C 0,0 km/h (0 Bft) 98 %
09.04.2017 23:50 9,7 C 9,7 C 9,9 C 73 % 1020,5 hPa 0,0 l/m 0,0 km/h (0 Bft) N 0 0 min 0,000 mm 0 W/m 5,1 C 9,7 C 0,0 km/h (0 Bft) 98 %
_ Min-Zeit 07:00 07:00 07:10 16:00 18:50 - 00:00 - - - - - 07:00 07:00 00:00 00:10
Minimum _ 1,2 C 1,2 C 1,2 C 39 % 1020,5 hPa - 0,0 km/h (0 Bft) - - - - - -0,1 C 1,2 C 0,0 km/h (0 Bft) 80 %
_ Max-Zeit 15:30 15:30 15:30 03:40 09:40 00:00 13:40 - - 08:30 14:00 13:20 10:50 15:30 12:10 00:00
Maximum _ 22,3 C 22,0 C 22,3 C 91 % 1024,3 hPa 0,0 l/m 3,9 km/h
W (1 Bft)
- - 10 min 0,482 mm 823 W/m 10,8 C 22,3 C 14,5 km/h
SO (3 Bft)
100 %
Durchschnitt _ 12,0 C 11,8 C 12,1 C 69 % 1022,5 hPa #0,0 l/m 0,3 km/h (0 Bft) NW - #6:50 h #2,641 mm 352 W/m 5,6 C 12,0 C 2,5 km/h (1 Bft) 99 %
PRIVATE WETTERSTATION BILLIGHEIM-ALLFELD - www.neckar-odenwald-wetter.de - Holger Sonntag